Time;durP1;ratioP1;P1;durP2;ratioP2;P2;SDS_P1;SDS_P2;PMS_P1;PMS_P2;Temp;Humidity;BMP_temperature;BMP_pressure;BME280_temperature;BME280_humidity;BME280_pressure;Samples;Min_cycle;Max_cycle;Signal;HPM_P1;HPM_P2
2021/08/17 00:02:07;;;;;;;3.50;1.00;;;;;;;12.52;100.00;100823.56;6248201;28;20214;-75
2021/08/17 00:05:10;;;;;;;1.00;0.82;;;;;;;12.58;100.00;100832.88;6247716;28;20053;-78
2021/08/17 00:08:11;;;;;;;6.55;1.67;;;;;;;12.55;100.00;100836.56;6247956;28;20068;-76
2021/08/17 00:11:12;;;;;;;1.30;0.70;;;;;;;12.56;100.00;100825.06;6247786;28;20049;-77
2021/08/17 00:14:15;;;;;;;2.08;0.77;;;;;;;12.58;100.00;100827.59;6247604;28;20057;-77
2021/08/17 00:17:17;;;;;;;1.38;0.70;;;;;;;12.64;100.00;100824.63;6248257;28;20050;-77
2021/08/17 00:20:19;;;;;;;2.95;0.93;;;;;;;12.67;100.00;100833.19;6247916;28;20064;-77
2021/08/17 00:23:20;;;;;;;1.40;0.70;;;;;;;12.69;100.00;100827.81;6249149;28;20053;-77
2021/08/17 00:26:21;;;;;;;2.15;1.40;;;;;;;12.73;100.00;100823.22;6248076;28;20408;-78
2021/08/17 00:29:24;;;;;;;1.13;1.00;;;;;;;12.73;100.00;100826.69;6248763;28;20132;-77
2021/08/17 00:32:25;;;;;;;0.80;0.80;;;;;;;12.76;100.00;100834.41;6248896;28;20049;-78
2021/08/17 00:35:26;;;;;;;5.45;2.17;;;;;;;12.75;100.00;100827.44;6248581;28;20128;-78
2021/08/17 00:38:28;;;;;;;2.45;0.85;;;;;;;12.79;100.00;100821.03;6249417;28;20061;-80
2021/08/17 00:41:29;;;;;;;3.72;1.63;;;;;;;12.80;100.00;100821.88;6248530;28;20061;-78
2021/08/17 00:44:33;;;;;;;2.05;0.90;;;;;;;12.75;100.00;100826.59;6247893;28;20053;-78
2021/08/17 00:47:34;;;;;;;2.53;1.35;;;;;;;12.79;100.00;100828.09;6247942;28;20052;-79
2021/08/17 00:50:36;;;;;;;1.25;1.15;;;;;;;12.84;100.00;100837.41;6247745;28;20053;-77
2021/08/17 00:53:37;;;;;;;1.67;1.30;;;;;;;12.87;100.00;100836.41;6246552;28;20489;-79
2021/08/17 00:56:39;;;;;;;4.35;1.73;;;;;;;12.87;100.00;100842.50;6248239;28;20523;-78
2021/08/17 00:59:42;;;;;;;3.58;1.00;;;;;;;12.93;100.00;100851.84;6247820;28;20057;-78
2021/08/17 01:02:45;;;;;;;3.60;0.90;;;;;;;12.95;100.00;100852.59;6247929;28;20061;-79
2021/08/17 01:05:46;;;;;;;4.38;1.08;;;;;;;12.92;100.00;100856.25;6247764;28;20053;-78
2021/08/17 01:08:49;;;;;;;1.33;0.88;;;;;;;12.96;100.00;100854.28;6247617;28;20073;-79
2021/08/17 01:11:51;;;;;;;3.00;1.10;;;;;;;13.02;100.00;100855.69;6247575;28;20501;-80
2021/08/17 01:14:53;;;;;;;3.03;1.98;;;;;;;13.04;100.00;100856.47;6248644;28;20052;-78
2021/08/17 01:17:55;;;;;;;0.63;0.63;;;;;;;12.97;100.00;100855.13;6248132;28;20053;-75
2021/08/17 01:20:58;;;;;;;4.75;1.08;;;;;;;12.98;100.00;100843.63;6247206;28;20450;-78
2021/08/17 01:23:59;;;;;;;2.72;1.25;;;;;;;13.01;100.00;100854.00;6247656;28;20110;-75
2021/08/17 01:27:02;;;;;;;4.28;1.77;;;;;;;13.01;100.00;100846.94;6247179;28;20045;-78
2021/08/17 01:30:04;;;;;;;1.85;0.70;;;;;;;13.01;100.00;100859.28;6248355;28;20052;-77
2021/08/17 01:33:05;;;;;;;4.28;1.05;;;;;;;12.97;100.00;100861.25;6248167;28;20058;-78
2021/08/17 01:36:06;;;;;;;1.73;0.90;;;;;;;13.03;100.00;100863.50;6247628;28;20492;-79
2021/08/17 01:39:08;;;;;;;5.93;1.83;;;;;;;13.03;100.00;100865.31;6247369;28;20056;-76
2021/08/17 01:42:11;;;;;;;1.15;0.70;;;;;;;12.99;100.00;100871.69;6247201;28;20061;-75
2021/08/17 01:45:14;;;;;;;4.13;1.27;;;;;;;12.99;100.00;100877.84;6247006;28;20050;-77
2021/08/17 01:48:15;;;;;;;3.47;1.65;;;;;;;12.95;100.00;100890.38;6246876;28;20072;-77
2021/08/17 01:51:17;;;;;;;4.75;1.77;;;;;;;12.95;100.00;100895.66;6246997;28;20056;-76
2021/08/17 01:54:19;;;;;;;7.65;1.63;;;;;;;12.93;100.00;100896.69;6247110;28;20049;-80
2021/08/17 01:57:22;;;;;;;5.72;2.05;;;;;;;12.90;100.00;100897.72;6247628;28;20050;-79
2021/08/17 02:00:23;;;;;;;2.67;1.00;;;;;;;12.85;100.00;100912.09;6246436;28;20488;-77
2021/08/17 02:03:24;;;;;;;4.75;1.20;;;;;;;12.82;100.00;100899.13;6247206;28;20052;-77
2021/08/17 02:06:26;;;;;;;3.30;1.60;;;;;;;12.84;100.00;100915.69;6250530;28;20049;-75
2021/08/17 02:09:27;;;;;;;2.45;1.10;;;;;;;12.85;100.00;100905.06;6250666;28;20045;-77
2021/08/17 02:12:30;;;;;;;6.78;1.80;;;;;;;12.81;100.00;100910.59;6250140;28;20049;-75
2021/08/17 02:15:32;;;;;;;3.35;1.30;;;;;;;12.88;100.00;100910.16;6251708;28;20095;-78
2021/08/17 02:18:35;;;;;;;4.15;1.80;;;;;;;12.86;100.00;100909.41;6251394;28;20046;-78
2021/08/17 02:21:37;;;;;;;7.25;1.55;;;;;;;12.91;100.00;100899.41;6251355;28;20048;-79
2021/08/17 02:24:38;;;;;;;2.10;0.90;;;;;;;12.93;100.00;100894.88;6251117;28;20801;-79
2021/08/17 02:27:41;;;;;;;2.08;1.05;;;;;;;12.92;100.00;100901.09;6250721;28;20053;-82
2021/08/17 02:30:42;;;;;;;2.50;0.80;;;;;;;12.89;100.00;100903.91;6251559;28;20050;-78
2021/08/17 02:33:44;;;;;;;2.50;1.17;;;;;;;12.90;100.00;100902.16;6250298;28;20060;-78
2021/08/17 02:36:45;;;;;;;3.70;1.10;;;;;;;12.92;100.00;100911.66;6252364;28;20049;-78
2021/08/17 02:39:46;;;;;;;2.95;1.00;;;;;;;12.91;100.00;100914.41;6251023;28;20052;-80
2021/08/17 02:42:49;;;;;;;4.82;1.35;;;;;;;12.87;100.00;100916.38;6258848;28;20058;-81
2021/08/17 02:45:51;;;;;;;1.77;0.80;;;;;;;12.88;100.00;100918.06;6265828;28;20048;-79
2021/08/17 02:48:53;;;;;;;2.88;1.13;;;;;;;12.95;100.00;100918.56;6267247;28;20037;-79
2021/08/17 02:51:54;;;;;;;4.88;1.77;;;;;;;12.94;100.00;100919.47;6267123;28;20476;-80
2021/08/17 02:54:55;;;;;;;5.53;0.82;;;;;;;12.90;100.00;100913.56;6275540;28;20049;-78
2021/08/17 02:58:01;;;;;;;4.07;1.00;;;;;;;12.88;100.00;100917.22;6275380;28;20044;-78
2021/08/17 03:01:02;;;;;;;1.80;0.90;;;;;;;12.88;100.00;100907.50;6266887;28;20192;-78
2021/08/17 03:04:04;;;;;;;3.42;1.33;;;;;;;12.94;100.00;100911.56;6257845;28;20049;-78
2021/08/17 03:07:06;;;;;;;3.30;1.05;;;;;;;12.94;100.00;100909.78;6250640;28;20045;-77
2021/08/17 03:10:08;;;;;;;2.88;0.68;;;;;;;12.95;100.00;100929.94;6249128;28;20049;-76
2021/08/17 03:13:10;;;;;;;3.70;1.08;;;;;;;13.06;100.00;100918.72;6249791;28;20496;-78
2021/08/17 03:16:12;;;;;;;2.03;1.02;;;;;;;13.04;100.00;100922.44;6249748;28;20050;-79
2021/08/17 03:19:13;;;;;;;4.35;1.38;;;;;;;13.11;100.00;100915.81;6250136;28;20412;-79
2021/08/17 03:22:15;;;;;;;1.40;0.77;;;;;;;13.09;100.00;100925.63;6248836;28;20402;-80
2021/08/17 03:25:16;;;;;;;2.13;0.88;;;;;;;13.10;100.00;100922.03;6243518;28;20052;-76
2021/08/17 03:28:19;;;;;;;4.00;0.90;;;;;;;13.04;100.00;100932.97;6234184;28;20045;-76
2021/08/17 03:31:20;;;;;;;1.27;0.80;;;;;;;13.07;100.00;100930.97;6235231;28;20049;-76
2021/08/17 03:34:21;;;;;;;2.58;0.70;;;;;;;13.07;100.00;100930.97;6235289;28;20056;-77
2021/08/17 03:37:23;;;;;;;7.53;2.25;;;;;;;13.08;100.00;100932.69;6236756;28;20037;-79
2021/08/17 03:40:24;;;;;;;1.25;0.60;;;;;;;13.04;100.00;100944.38;6235869;28;20053;-79
2021/08/17 03:43:27;;;;;;;1.73;1.13;;;;;;;12.85;100.00;100941.13;6243015;28;20053;-76
2021/08/17 03:46:29;;;;;;;2.75;0.75;;;;;;;12.68;100.00;100958.81;6249376;28;20045;-78
2021/08/17 03:49:30;;;;;;;5.47;1.25;;;;;;;12.59;100.00;100951.44;6250428;28;20064;-79
2021/08/17 03:52:32;;;;;;;6.13;1.48;;;;;;;12.59;100.00;100943.53;6250299;28;20060;-78
2021/08/17 03:55:33;;;;;;;1.25;0.80;;;;;;;12.59;100.00;100953.22;6249947;28;20053;-78
2021/08/17 03:58:36;;;;;;;0.43;0.43;;;;;;;12.62;100.00;100953.03;6249605;28;20049;-77
2021/08/17 04:01:37;;;;;;;3.00;1.02;;;;;;;12.64;100.00;100961.72;6248814;28;20053;-78
2021/08/17 04:04:38;;;;;;;1.38;0.73;;;;;;;12.68;100.00;100957.97;6237335;28;20042;-78
2021/08/17 04:07:40;;;;;;;2.42;1.77;;;;;;;12.69;100.00;100957.88;6236604;28;20045;-78
2021/08/17 04:10:46;;;;;;;1.65;0.80;;;;;;;12.74;100.00;100970.78;6236250;28;20413;-79
2021/08/17 04:13:48;;;;;;;1.27;0.63;;;;;;;12.72;100.00;100972.66;6234263;28;20402;-79
2021/08/17 04:16:50;;;;;;;3.20;0.80;;;;;;;12.72;100.00;100974.44;6230193;28;20169;-80
2021/08/17 04:19:51;;;;;;;3.65;1.00;;;;;;;12.81;100.00;100963.34;6241583;28;20061;-79
2021/08/17 04:22:52;;;;;;;1.00;0.60;;;;;;;12.79;100.00;100979.28;6247923;28;20056;-81
2021/08/17 04:25:54;;;;;;;1.60;0.82;;;;;;;12.79;100.00;100992.44;6247602;28;20072;-78
2021/08/17 04:28:56;;;;;;;1.70;0.80;;;;;;;12.84;100.00;100984.28;6247209;28;20048;-79
2021/08/17 04:31:58;;;;;;;2.00;0.75;;;;;;;12.81;100.00;100989.72;6248092;28;20053;-79
2021/08/17 04:34:59;;;;;;;2.63;1.02;;;;;;;12.83;100.00;100991.34;6235744;28;20053;-78
2021/08/17 04:38:01;;;;;;;4.13;1.23;;;;;;;12.83;100.00;100991.34;6233146;28;20104;-80
2021/08/17 04:41:02;;;;;;;5.82;1.25;;;;;;;12.87;100.00;100987.59;6232606;28;20045;-79
2021/08/17 04:44:05;;;;;;;1.38;0.80;;;;;;;12.85;100.00;100993.88;6235873;28;20054;-80
2021/08/17 04:47:06;;;;;;;5.60;0.82;;;;;;;12.87;100.00;100999.94;6235064;28;20044;-77
2021/08/17 04:50:09;;;;;;;1.33;0.70;;;;;;;12.86;100.00;100995.59;6231888;28;20057;-77
2021/08/17 04:53:10;;;;;;;0.70;0.70;;;;;;;12.80;100.00;101006.47;6235614;28;20053;-78
2021/08/17 04:56:11;;;;;;;1.58;0.80;;;;;;;12.80;100.00;101006.47;6234118;28;20069;-80
2021/08/17 04:59:14;;;;;;;2.00;0.90;;;;;;;12.88;100.00;101015.66;6234634;28;20687;-79
2021/08/17 05:02:15;;;;;;;4.05;0.85;;;;;;;12.86;100.00;101019.34;6234338;28;20053;-79
2021/08/17 05:05:17;;;;;;;0.73;0.68;;;;;;;12.87;100.00;101016.59;6231281;28;20532;-80
2021/08/17 05:08:18;;;;;;;1.58;0.63;;;;;;;12.94;100.00;101011.78;6238082;28;20405;-80
2021/08/17 05:11:20;;;;;;;6.40;1.98;;;;;;;12.92;100.00;101016.31;6232953;28;20045;-79
2021/08/17 05:14:22;;;;;;;1.33;0.55;;;;;;;12.88;100.00;101041.19;6234359;28;20531;-80
2021/08/17 05:17:24;;;;;;;3.80;1.10;;;;;;;12.91;100.00;101022.56;6233192;28;20045;-79
2021/08/17 05:20:26;;;;;;;3.10;1.30;;;;;;;12.85;100.00;101025.53;6245157;28;20511;-76
2021/08/17 05:23:27;;;;;;;5.63;1.80;;;;;;;12.91;100.00;101026.03;6242912;28;20052;-79
2021/08/17 05:26:29;;;;;;;2.33;1.33;;;;;;;12.86;100.00;101028.09;6241156;28;20057;-79
2021/08/17 05:29:32;;;;;;;7.47;1.20;;;;;;;12.98;100.00;101031.78;6248764;28;20554;-79
2021/08/17 05:32:35;;;;;;;2.35;0.73;;;;;;;12.97;100.00;101038.00;6247906;28;20060;-80
2021/08/17 05:35:38;;;;;;;2.00;1.33;;;;;;;12.98;100.00;101034.41;6249569;28;20050;-80
2021/08/17 05:38:39;;;;;;;0.85;0.70;;;;;;;12.94;100.00;101044.31;6254455;28;20512;-80
2021/08/17 05:41:41;;;;;;;2.45;0.70;;;;;;;13.06;100.00;101042.75;6275183;28;20059;-80
2021/08/17 05:44:45;;;;;;;5.30;1.02;;;;;;;12.94;100.00;101046.97;6275226;28;20044;-78
2021/08/17 05:47:47;;;;;;;2.42;1.00;;;;;;;12.98;100.00;101049.41;6267803;28;20045;-80
2021/08/17 05:50:49;;;;;;;2.85;0.80;;;;;;;12.93;100.00;101045.25;6277024;28;20578;-79
2021/08/17 05:53:50;;;;;;;0.77;0.47;;;;;;;12.94;100.00;101044.31;6277550;28;20045;-79
2021/08/17 05:56:51;;;;;;;1.83;1.15;;;;;;;12.91;100.00;101057.69;6277889;28;20052;-79
2021/08/17 05:59:56;;;;;;;2.95;0.90;;;;;;;12.89;100.00;101054.28;6277571;28;20504;-77
2021/08/17 06:02:57;;;;;;;4.32;0.98;;;;;;;12.87;100.00;101044.78;6269669;28;20412;-77
2021/08/17 06:05:59;;;;;;;1.45;0.80;;;;;;;12.88;100.00;101046.47;6251564;28;20053;-79
2021/08/17 06:09:01;;;;;;;1.02;0.70;;;;;;;12.87;100.00;101042.13;6251916;28;20126;-77
2021/08/17 06:12:02;;;;;;;1.90;1.15;;;;;;;12.85;100.00;101038.72;6251055;28;20084;-76
2021/08/17 06:15:06;;;;;;;4.10;1.08;;;;;;;12.88;100.00;101044.66;6250783;28;20060;-78
2021/08/17 06:18:08;;;;;;;2.65;1.02;;;;;;;12.88;100.00;101044.66;6250800;28;20432;-79
2021/08/17 06:21:10;;;;;;;3.17;1.58;;;;;;;12.92;100.00;101047.97;6251674;28;20057;-79
2021/08/17 06:24:11;;;;;;;1.92;0.90;;;;;;;12.97;100.00;101040.66;6251012;28;20501;-80
2021/08/17 06:27:16;;;;;;;1.58;0.85;;;;;;;12.94;100.00;101052.25;6251958;28;20064;-79
2021/08/17 06:30:18;;;;;;;4.45;0.60;;;;;;;12.93;100.00;101053.16;6251220;28;20049;-77
2021/08/17 06:33:20;;;;;;;1.75;0.98;;;;;;;12.99;100.00;101062.53;6251282;28;20064;-76
2021/08/17 06:36:22;;;;;;;1.58;0.60;;;;;;;13.03;100.00;101056.09;6251521;28;20057;-78
2021/08/17 06:39:24;;;;;;;3.53;0.98;;;;;;;13.07;100.00;101059.41;6251352;28;20048;-79
2021/08/17 06:42:25;;;;;;;2.55;0.63;;;;;;;13.10;100.00;101068.00;6251325;28;20049;-79
2021/08/17 06:45:28;;;;;;;1.05;0.47;;;;;;;13.25;100.00;101063.66;6251902;28;20056;-80
2021/08/17 06:48:29;;;;;;;0.85;0.40;;;;;;;13.51;95.27;101061.25;6251779;28;20045;-76
2021/08/17 06:51:30;;;;;;;0.47;0.43;;;;;;;13.54;95.98;101067.19;6249632;28;20061;-79
2021/08/17 06:54:32;;;;;;;3.60;0.93;;;;;;;13.58;96.00;101055.50;6250920;28;20065;-79
2021/08/17 06:57:33;;;;;;;0.40;0.40;;;;;;;13.63;96.94;101057.88;6251913;28;20413;-80
2021/08/17 07:00:36;;;;;;;0.88;0.65;;;;;;;13.74;96.51;101052.75;6250433;28;20490;-79
2021/08/17 07:03:37;;;;;;;0.70;0.45;;;;;;;13.90;92.15;101057.97;6249756;28;20054;-76
2021/08/17 07:06:39;;;;;;;0.98;0.75;;;;;;;13.98;93.09;101053.03;6249986;28;20053;-81
2021/08/17 07:09:40;;;;;;;0.88;0.43;;;;;;;14.09;90.88;101086.72;6249707;28;20048;-81
2021/08/17 07:12:41;;;;;;;2.05;0.43;;;;;;;14.20;87.53;101065.72;6227139;28;20053;-82
2021/08/17 07:15:44;;;;;;;4.75;1.13;;;;;;;14.22;88.03;101061.22;6225374;28;20445;-81
2021/08/17 07:18:45;;;;;;;4.82;1.40;;;;;;;14.29;86.91;101065.16;6225991;28;20057;-81
2021/08/17 07:21:47;;;;;;;3.83;1.25;;;;;;;14.31;88.21;101059.78;6246929;28;20053;-76
2021/08/17 07:24:48;;;;;;;2.10;0.80;;;;;;;14.34;88.26;101065.69;6259866;28;20041;-80
2021/08/17 07:27:50;;;;;;;1.40;0.45;;;;;;;14.41;87.00;101060.88;6263296;28;20041;-80
2021/08/17 07:30:52;;;;;;;1.67;0.75;;;;;;;14.56;86.78;101067.84;6250813;28;20045;-80
2021/08/17 07:33:54;;;;;;;0.85;0.75;;;;;;;14.53;88.04;101073.31;6249361;28;20050;-77
2021/08/17 07:36:55;;;;;;;1.27;0.80;;;;;;;14.50;86.36;101064.78;6250141;28;20049;-80
2021/08/17 07:39:56;;;;;;;2.17;0.85;;;;;;;14.45;87.96;101063.22;6250313;28;20057;-81
2021/08/17 07:42:58;;;;;;;1.23;0.63;;;;;;;14.50;88.33;101065.63;6249906;28;20045;-82
2021/08/17 07:46:00;;;;;;;1.15;0.50;;;;;;;14.47;87.55;101063.13;6249789;28;20065;-78
2021/08/17 07:49:02;;;;;;;0.68;0.45;;;;;;;14.51;86.17;101071.75;6249166;28;20054;-81
2021/08/17 07:52:04;;;;;;;0.98;0.60;;;;;;;14.44;87.75;101060.66;6247746;28;20515;-79
2021/08/17 07:55:08;;;;;;;6.30;0.63;;;;;;;14.58;88.59;101057.16;6255523;28;20061;-83
2021/08/17 07:58:10;;;;;;;0.70;0.52;;;;;;;14.77;87.66;101059.47;6257653;28;20049;-82
2021/08/17 08:01:13;;;;;;;0.77;0.50;;;;;;;14.83;87.31;101064.34;6257109;28;20050;-78
2021/08/17 08:04:14;;;;;;;4.20;0.82;;;;;;;15.00;83.94;101066.72;6248678;28;20053;-77
2021/08/17 08:07:34;;;;;;;4.00;0.63;;;;;;;14.95;86.74;101085.56;6248901;28;20050;-82
2021/08/17 08:10:35;;;;;;;1.80;0.77;;;;;;;15.02;85.55;101079.84;6247863;28;20041;-81
2021/08/17 08:13:37;;;;;;;4.97;0.65;;;;;;;15.04;85.68;101076.16;6248721;28;20045;-81
2021/08/17 08:16:39;;;;;;;2.15;0.93;;;;;;;15.12;84.71;101079.13;6248471;28;20053;-83
2021/08/17 08:19:41;;;;;;;4.25;0.90;;;;;;;15.16;83.10;101090.38;6245493;28;20046;-78
2021/08/17 08:22:44;;;;;;;1.67;1.05;;;;;;;15.19;81.13;101108.69;6232969;28;20054;-79
2021/08/17 08:25:45;;;;;;;3.10;1.17;;;;;;;15.16;82.17;101098.31;6229103;28;20057;-77
2021/08/17 08:28:46;;;;;;;2.08;1.13;;;;;;;15.15;84.47;101073.63;6248944;28;20050;-80
2021/08/17 08:31:49;;;;;;;3.15;0.65;;;;;;;15.25;82.07;101080.97;6248811;28;20052;-79
2021/08/17 08:34:51;;;;;;;1.92;0.75;;;;;;;15.25;82.52;101070.38;6230522;28;20050;-79
2021/08/17 08:37:52;;;;;;;2.85;1.20;;;;;;;15.31;85.03;101078.75;6224098;28;20054;-78
2021/08/17 08:40:53;;;;;;;1.77;0.73;;;;;;;15.40;82.45;101072.00;6223796;28;20054;-80
2021/08/17 08:43:55;;;;;;;2.33;0.85;;;;;;;15.47;83.65;101084.69;6224393;28;20056;-79
2021/08/17 08:46:59;;;;;;;4.97;0.55;;;;;;;15.64;80.18;101069.47;6223498;28;20117;-79
2021/08/17 08:50:01;;;;;;;2.25;0.90;;;;;;;15.76;78.74;101078.34;6248867;28;20045;-80
2021/08/17 08:53:02;;;;;;;1.33;0.82;;;;;;;15.73;81.58;101076.78;6247573;28;20056;-81
2021/08/17 08:56:04;;;;;;;3.42;1.17;;;;;;;15.76;81.01;101086.31;6247026;28;20057;-81
2021/08/17 08:59:05;;;;;;;7.28;2.03;;;;;;;15.78;81.40;101079.97;6248046;28;20045;-77
2021/08/17 09:02:10;;;;;;;1.55;0.73;;;;;;;15.77;79.86;101088.03;6247076;28;20049;-78
2021/08/17 09:05:12;;;;;;;4.82;1.08;;;;;;;15.78;81.68;101085.25;6248070;28;20053;-80
2021/08/17 09:08:13;;;;;;;2.38;1.42;;;;;;;15.77;81.69;101091.53;6247533;28;20053;-80
2021/08/17 09:11:16;;;;;;;2.25;0.95;;;;;;;15.84;81.41;101086.63;6247776;28;20052;-79
2021/08/17 09:14:21;;;;;;;5.05;2.08;;;;;;;15.88;82.39;101088.13;6252531;28;20050;-79
2021/08/17 09:17:24;;;;;;;3.33;1.58;;;;;;;15.81;82.77;101078.91;6256148;28;20568;-80
2021/08/17 09:20:32;;;;;;;3.15;1.00;;;;;;;15.69;84.32;101101.81;6255836;28;20045;-78
2021/08/17 09:23:37;;;;;;;2.97;1.13;;;;;;;15.67;83.69;101077.22;6254799;28;20049;-78
2021/08/17 09:26:45;;;;;;;3.53;1.20;;;;;;;15.75;84.17;101069.56;6255254;28;20059;-76
2021/08/17 09:29:48;;;;;;;3.83;1.58;;;;;;;15.70;82.62;101083.13;6255591;28;20060;-79
2021/08/17 09:32:52;;;;;;;2.90;1.23;;;;;;;15.59;84.00;101084.81;6255591;28;20049;-79
2021/08/17 09:35:56;;;;;;;5.00;1.88;;;;;;;15.53;85.01;101087.88;6255442;28;20424;-76
2021/08/17 09:38:57;;;;;;;2.70;1.15;;;;;;;15.60;85.42;101099.75;6255254;28;20051;-79
2021/08/17 09:42:23;;;;;;;1.90;1.10;;;;;;;15.69;85.85;101080.59;6252630;28;20053;-78
2021/08/17 09:45:24;;;;;;;4.13;1.30;;;;;;;15.90;83.03;101081.75;6255700;28;20061;-79
2021/08/17 09:48:31;;;;;;;3.50;1.77;;;;;;;16.07;79.79;101090.31;6256388;28;20052;-80
2021/08/17 09:51:34;;;;;;;2.25;1.38;;;;;;;16.15;80.91;101077.38;6255930;28;20050;-79
2021/08/17 09:54:38;;;;;;;2.95;1.23;;;;;;;16.24;79.79;101076.69;6255252;28;20049;-79
2021/08/17 09:57:39;;;;;;;3.10;1.73;;;;;;;16.26;77.58;101064.19;6255141;28;20058;-78
2021/08/17 10:00:40;;;;;;;1.90;1.08;;;;;;;16.23;76.85;101083.81;6257038;28;20045;-75
2021/08/17 10:03:44;;;;;;;3.88;1.25;;;;;;;16.19;77.91;101078.84;6254119;28;20799;-76
2021/08/17 10:06:46;;;;;;;1.38;1.10;;;;;;;16.08;80.04;101084.03;6254157;28;20058;-75
2021/08/17 10:09:48;;;;;;;3.95;1.85;;;;;;;16.02;79.44;101082.69;6254193;28;20052;-75
2021/08/17 10:12:49;;;;;;;3.10;1.38;;;;;;;15.89;80.52;101097.75;6254323;28;20497;-74
2021/08/17 10:15:52;;;;;;;1.90;1.17;;;;;;;15.91;78.25;101091.41;6254824;28;20049;-78
2021/08/17 10:18:57;;;;;;;2.67;1.13;;;;;;;15.90;79.20;101092.38;6257839;28;20041;-78
2021/08/17 10:22:01;;;;;;;3.15;1.50;;;;;;;16.00;78.27;101084.63;6254902;28;20504;-80
2021/08/17 10:25:06;;;;;;;4.03;1.58;;;;;;;16.08;79.63;101099.94;6263590;28;20056;-78
2021/08/17 10:28:23;;;;;;;3.15;1.42;;;;;;;16.13;80.05;101087.25;6271401;28;20420;-78
2021/08/17 10:31:26;;;;;;;3.15;1.85;;;;;;;16.21;79.18;101090.16;6259336;28;20045;-79
2021/08/17 10:34:37;;;;;;;2.67;1.40;;;;;;;16.27;77.79;101080.94;6263935;28;20060;-79
2021/08/17 10:37:39;;;;;;;4.05;1.63;;;;;;;16.33;78.00;101094.59;6267819;28;20049;-80
2021/08/17 10:41:02;;;;;;;4.55;2.10;;;;;;;16.36;77.36;101082.94;6256095;28;20048;-76
2021/08/17 10:44:13;;;;;;;6.43;1.90;;;;;;;16.29;77.96;101093.13;6247394;28;20049;-79
2021/08/17 10:47:31;;;;;;;4.20;2.30;;;;;;;16.22;78.79;101095.38;6250545;28;20064;-76
2021/08/17 10:50:34;;;;;;;5.50;2.60;;;;;;;16.27;79.10;101086.25;6234422;28;20520;-78
2021/08/17 10:53:36;;;;;;;4.13;1.63;;;;;;;16.27;78.77;101081.78;6229480;28;20428;-75
2021/08/17 10:56:39;;;;;;;3.92;2.17;;;;;;;16.32;80.00;101071.69;6259097;28;20041;-76
2021/08/17 10:59:41;;;;;;;2.55;1.45;;;;;;;16.48;78.62;101084.69;6263259;28;20048;-76
2021/08/17 11:02:56;;;;;;;2.72;1.73;;;;;;;16.67;80.01;101078.91;6263997;28;20049;-76
2021/08/17 11:05:58;;;;;;;4.68;2.00;;;;;;;16.82;78.83;101075.13;6257769;28;20049;-80
2021/08/17 11:09:00;;;;;;;5.25;1.90;;;;;;;16.80;77.47;101082.34;6249736;28;20041;-78
2021/08/17 11:12:04;;;;;;;3.97;1.98;;;;;;;16.77;76.04;101082.59;6257279;28;20053;-78
2021/08/17 11:15:08;;;;;;;3.85;2.10;;;;;;;16.67;76.46;101100.97;6248883;28;20053;-79
2021/08/17 11:18:09;;;;;;;2.80;1.65;;;;;;;16.60;76.29;101086.44;6256111;28;20423;-80
2021/08/17 11:21:12;;;;;;;3.78;2.05;;;;;;;16.48;77.38;101088.19;6254158;28;20041;-77
2021/08/17 11:24:19;;;;;;;2.63;1.67;;;;;;;16.50;79.30;101088.09;6265166;28;20056;-79
2021/08/17 11:27:23;;;;;;;4.63;2.17;;;;;;;16.51;78.78;101083.63;6271825;28;20060;-78
2021/08/17 11:30:24;;;;;;;6.78;2.40;;;;;;;16.57;77.93;101091.97;6271529;28;20174;-79
2021/08/17 11:33:26;;;;;;;5.45;2.47;;;;;;;16.59;77.63;101102.50;6271669;28;20519;-80
2021/08/17 11:36:30;;;;;;;6.55;2.28;;;;;;;16.60;78.82;101104.19;6272204;28;20056;-79
2021/08/17 11:39:36;;;;;;;6.07;2.05;;;;;;;16.72;74.75;101093.56;6273828;28;20045;-80
2021/08/17 11:42:40;;;;;;;3.78;1.70;;;;;;;16.67;75.43;101094.84;6273748;28;20124;-79
2021/08/17 11:45:42;;;;;;;4.35;2.22;;;;;;;16.77;76.35;101087.91;6273871;28;20049;-80
2021/08/17 11:48:43;;;;;;;6.32;2.60;;;;;;;16.84;76.70;101093.59;6274402;28;20053;-79
2021/08/17 11:51:46;;;;;;;4.45;2.17;;;;;;;16.90;75.90;101087.84;6274573;28;20462;-81
2021/08/17 11:54:59;;;;;;;7.60;2.65;;;;;;;16.93;72.96;101087.59;6273381;28;20052;-78
2021/08/17 11:58:05;;;;;;;7.82;3.70;;;;;;;16.91;73.97;101097.50;6272745;28;20048;-76
2021/08/17 12:01:09;;;;;;;9.00;2.80;;;;;;;16.93;72.55;101090.25;6272760;28;20419;-75
2021/08/17 12:04:11;;;;;;;4.07;2.13;;;;;;;16.94;73.01;101086.63;6272401;28;20060;-75
2021/08/17 12:07:15;;;;;;;4.47;2.58;;;;;;;17.02;72.66;101094.03;6272846;28;20049;-76
2021/08/17 12:10:18;;;;;;;5.25;2.75;;;;;;;17.00;74.12;101086.19;6272232;28;20451;-76
2021/08/17 12:13:24;;;;;;;6.13;2.20;;;;;;;17.05;72.70;101107.09;6272746;28;20060;-76
2021/08/17 12:16:26;;;;;;;6.40;2.78;;;;;;;17.04;72.18;101087.66;6272383;28;20091;-77
2021/08/17 12:19:27;;;;;;;7.20;3.50;;;;;;;16.96;74.18;101084.72;6272483;28;20045;-76
2021/08/17 12:22:33;;;;;;;4.78;2.35;;;;;;;16.96;73.87;101095.34;6272221;28;20048;-76
2021/08/17 12:25:35;;;;;;;5.15;2.78;;;;;;;16.91;75.81;101095.69;6271868;28;20095;-76
2021/08/17 12:28:36;;;;;;;3.90;2.40;;;;;;;16.87;75.80;101098.69;6271807;28;20053;-76
2021/08/17 12:31:38;;;;;;;6.97;3.03;;;;;;;16.84;77.33;101089.13;6272107;28;20462;-75
2021/08/17 12:34:43;;;;;;;5.07;2.63;;;;;;;16.69;77.39;101104.34;6266911;28;20060;-74
2021/08/17 12:37:45;;;;;;;8.82;2.92;;;;;;;16.62;79.40;101096.94;6253776;28;20041;-77
2021/08/17 12:40:48;;;;;;;7.70;3.03;;;;;;;16.52;81.12;101099.44;6257799;28;20041;-78
2021/08/17 12:43:49;;;;;;;7.25;3.28;;;;;;;16.47;81.62;101091.81;6247957;28;20049;-76
2021/08/17 12:47:10;;;;;;;6.95;2.75;;;;;;;16.40;83.67;101089.72;6243612;23;20494;-72
2021/08/17 12:50:11;;;;;;;7.75;3.65;;;;;;;16.18;87.76;101101.03;6222082;28;20128;-73
2021/08/17 12:53:22;;;;;;;6.30;2.85;;;;;;;16.11;89.55;101097.09;6233449;28;20547;-73
2021/08/17 12:56:24;;;;;;;6.80;3.13;;;;;;;16.05;89.66;101093.09;6256665;28;20056;-75
2021/08/17 12:59:25;;;;;;;9.13;3.67;;;;;;;15.91;93.79;101096.72;6257665;28;20041;-75
2021/08/17 13:02:27;;;;;;;6.80;3.38;;;;;;;15.91;92.45;101095.84;6255672;28;20048;-75
2021/08/17 13:05:29;;;;;;;11.40;3.35;;;;;;;15.84;92.73;101095.44;6258731;28;20072;-75
2021/08/17 13:08:31;;;;;;;7.57;3.92;;;;;;;15.88;93.32;101098.72;6262839;28;20420;-74
2021/08/17 13:11:33;;;;;;;7.80;3.58;;;;;;;15.96;93.82;101093.72;6271267;28;20049;-74
2021/08/17 13:14:35;;;;;;;7.90;3.92;;;;;;;16.08;92.72;101099.94;6267079;28;20049;-75
2021/08/17 13:17:37;;;;;;;8.60;4.20;;;;;;;16.24;90.82;101096.13;6253464;28;20045;-75
2021/08/17 13:20:38;;;;;;;8.45;3.42;;;;;;;16.37;91.86;101089.94;6256929;28;20053;-75
2021/08/17 13:23:41;;;;;;;8.20;3.97;;;;;;;16.49;89.66;101092.56;6268312;28;20053;-74
2021/08/17 13:26:43;;;;;;;8.40;4.00;;;;;;;16.54;87.55;101083.41;6271141;28;20045;-74
2021/08/17 13:29:44;;;;;;;8.55;3.97;;;;;;;16.48;90.09;101082.03;6271063;28;20049;-72
2021/08/17 13:32:46;;;;;;;8.02;3.25;;;;;;;16.49;87.79;101089.91;6271273;28;20049;-75
2021/08/17 13:35:47;;;;;;;6.80;3.50;;;;;;;16.47;87.80;101089.16;6270864;28;20048;-75
2021/08/17 13:38:50;;;;;;;8.20;3.40;;;;;;;16.45;90.48;101080.47;6270847;28;20053;-75
2021/08/17 13:41:52;;;;;;;8.75;4.28;;;;;;;16.49;87.09;101083.75;6271186;28;20503;-74
2021/08/17 13:44:54;;;;;;;7.88;4.15;;;;;;;16.47;87.69;101083.00;6270563;28;20049;-75
2021/08/17 13:47:55;;;;;;;8.02;3.40;;;;;;;16.45;85.96;101080.47;6271081;28;20488;-75
2021/08/17 13:50:57;;;;;;;6.03;3.22;;;;;;;16.29;90.67;101074.56;6240075;28;20045;-76
2021/08/17 13:53:59;;;;;;;11.05;4.20;;;;;;;15.98;92.66;101079.41;6221391;28;20398;-74
2021/08/17 13:57:01;;;;;;;8.35;3.60;;;;;;;15.76;95.92;101084.53;6221666;28;20050;-75
2021/08/17 14:00:04;;;;;;;7.00;4.05;;;;;;;15.39;97.15;101088.81;6223989;28;20669;-76
2021/08/17 14:03:06;;;;;;;6.82;3.88;;;;;;;15.22;100.00;101092.63;6226051;28;20061;-72
2021/08/17 14:06:08;;;;;;;6.15;3.40;;;;;;;15.14;100.00;101114.31;6225878;28;20401;-75